Main page
METAR-TAF:

METAR-TAF

Airports :

Beja Airbase

Beja, Portugal

latitude: 38-04-40N, longitude: 007-55-57W, elevation: 193 m

Current weather observation

The report was made 35 minutes ago, at 23:00 UTC
Wind 1 kt from the West
Temperature 15°C
Humidity 100%
Pressure 1025 hPa
Visibility 10 km or more
no clouds below 1500 m and no cumulonimbus

METAR: LPBJ 282300Z 28001KT CAVOK 15/15 Q1025

Time: 23:35 (23:35 UTC)

Forecast

The report was made 6 hours and 31 minutes ago, at 17:04 UTC
Forecast valid from 28 at 18 UTC to 29 at 18 UTC
Wind 5 kt from the North
Visibility 10 km or more
Broken clouds at a height of 2500 ft
Becoming
from 28 at 22 UTC to 29 at 01 UTC
Visibility: 0200 m
Broken clouds at a height of 200 ft
fog
Becoming
from 29 at 07 UTC to 29 at 10 UTC
Visibility 10 km or more
Few clouds at a height of 1200 ft

TAF: LPBJ 281704Z 2818/2918 35005KT 9999 BKN025 BECMG 2822/2901 0200 FG BKN002 BECMG 2907/2910 9999 NSW FEW012

Weather observations and forecasts of more than 4000 airports (METAR and TAF reports).

The available stations are represented by yellow and red dots on the map.

Hover mouse over dot to see the name of the station.

Then click to see weather observations and forecasts.

To change the map : click on the green buttons with a black cross to zoom in, on the green button with a dash to zoom out, or on the green arrows for adjacent maps.


METAR-TAF: